Time;durP1;ratioP1;P1;durP2;ratioP2;P2;SDS_P1;SDS_P2;PMS_P1;PMS_P2;Temp;Humidity;BMP_temperature;BMP_pressure;BME280_temperature;BME280_humidity;BME280_pressure;Samples;Min_cycle;Max_cycle;Signal;HPM_P1;HPM_P2
2021/10/06 00:02:09;;;;;;;3.42;2.50;;;;;;;;;;4986027;28;20051;-83
2021/10/06 00:04:35;;;;;;;3.60;2.60;;;;;;;;;;4994319;28;20035;-81
2021/10/06 00:07:01;;;;;;;3.60;2.28;;;;;;;;;;4990323;28;20131;-81
2021/10/06 00:09:28;;;;;;;3.53;2.35;;;;;;;;;;4992239;28;20046;-82
2021/10/06 00:11:54;;;;;;;3.40;2.42;;;;;;;;;;4989539;28;20529;-82
2021/10/06 00:14:21;;;;;;;3.40;2.30;;;;;;;;;;4974246;28;20062;-83
2021/10/06 00:16:48;;;;;;;3.45;2.40;;;;;;;;;;4989448;28;20058;-81
2021/10/06 00:19:15;;;;;;;3.38;2.35;;;;;;;;;;4974142;28;20124;-84
2021/10/06 00:21:41;;;;;;;3.15;2.08;;;;;;;;;;4994091;28;20037;-83
2021/10/06 00:24:07;;;;;;;4.30;2.15;;;;;;;;;;4970341;28;20202;-83
2021/10/06 00:26:35;;;;;;;3.85;2.83;;;;;;;;;;4991998;28;20751;-82
2021/10/06 00:29:01;;;;;;;4.03;2.40;;;;;;;;;;4991776;28;20478;-82
2021/10/06 00:31:27;;;;;;;4.53;2.55;;;;;;;;;;4989134;28;20038;-84
2021/10/06 00:33:54;;;;;;;3.92;2.00;;;;;;;;;;4989659;28;20079;-85
2021/10/06 00:36:20;;;;;;;2.97;1.90;;;;;;;;;;4989051;28;20566;-85
2021/10/06 00:38:47;;;;;;;3.58;2.28;;;;;;;;;;4987911;28;20121;-81
2021/10/06 00:41:13;;;;;;;3.58;2.38;;;;;;;;;;4973657;28;20064;-85
2021/10/06 00:43:40;;;;;;;4.10;2.30;;;;;;;;;;4973443;28;20128;-86
2021/10/06 00:46:06;;;;;;;3.20;2.38;;;;;;;;;;4991761;28;20054;-86
2021/10/06 00:48:33;;;;;;;3.45;2.17;;;;;;;;;;4974219;28;20466;-86
2021/10/06 00:50:59;;;;;;;3.72;2.47;;;;;;;;;;4981077;28;20074;-82
2021/10/06 00:53:26;;;;;;;4.38;2.60;;;;;;;;;;4963171;28;20105;-83
2021/10/06 00:55:53;;;;;;;2.95;2.20;;;;;;;;;;4966160;28;20054;-83
2021/10/06 00:58:20;;;;;;;2.50;1.98;;;;;;;;;;4970924;28;20062;-83
2021/10/06 01:00:46;;;;;;;3.47;2.35;;;;;;;;;;4977891;28;20077;-83
2021/10/06 01:03:13;;;;;;;2.75;1.92;;;;;;;;;;4968832;28;20102;-82
2021/10/06 01:05:39;;;;;;;3.10;2.20;;;;;;;;;;4968940;28;20494;-83
2021/10/06 01:08:07;;;;;;;3.20;2.22;;;;;;;;;;4964953;28;20058;-83
2021/10/06 01:10:34;;;;;;;2.92;1.95;;;;;;;;;;4955772;28;20062;-83
2021/10/06 01:13:01;;;;;;;3.50;2.25;;;;;;;;;;4961502;28;20468;-83
2021/10/06 01:15:27;;;;;;;3.20;2.10;;;;;;;;;;4977577;28;20077;-84
2021/10/06 01:17:54;;;;;;;3.15;1.92;;;;;;;;;;4974375;28;20077;-83
2021/10/06 01:20:20;;;;;;;2.92;2.00;;;;;;;;;;4976084;28;20092;-83
2021/10/06 01:22:46;;;;;;;3.85;1.90;;;;;;;;;;4961826;28;20070;-83
2021/10/06 01:25:14;;;;;;;2.90;2.00;;;;;;;;;;4973076;28;24493;-83
2021/10/06 01:27:41;;;;;;;2.78;1.90;;;;;;;;;;4966719;28;20058;-81
2021/10/06 01:30:09;;;;;;;2.28;1.80;;;;;;;;;;4970361;28;20078;-83
2021/10/06 01:32:37;;;;;;;2.67;1.90;;;;;;;;;;4974266;28;20042;-82
2021/10/06 01:35:04;;;;;;;3.10;1.90;;;;;;;;;;4955566;28;20062;-82
2021/10/06 01:37:31;;;;;;;3.55;1.90;;;;;;;;;;4963914;28;20061;-83
2021/10/06 01:39:58;;;;;;;3.00;1.98;;;;;;;;;;4974291;28;20018;-82
2021/10/06 01:42:24;;;;;;;2.78;1.80;;;;;;;;;;4972756;28;20062;-82
2021/10/06 01:44:50;;;;;;;3.28;1.80;;;;;;;;;;4970059;28;20085;-83
2021/10/06 01:47:20;;;;;;;2.45;1.65;;;;;;;;;;4971109;28;20058;-85
2021/10/06 01:49:47;;;;;;;2.78;1.73;;;;;;;;;;4969082;28;20376;-84
2021/10/06 01:52:20;;;;;;;2.33;1.63;;;;;;;;;;4970658;28;20637;-85
2021/10/06 01:54:47;;;;;;;3.38;1.70;;;;;;;;;;4970184;28;20116;-85
2021/10/06 01:57:14;;;;;;;2.38;1.65;;;;;;;;;;4968884;28;20059;-85
2021/10/06 01:59:41;;;;;;;2.67;1.70;;;;;;;;;;4970016;28;20061;-85
2021/10/06 02:02:07;;;;;;;3.03;1.90;;;;;;;;;;4967750;28;20059;-85
2021/10/06 02:04:34;;;;;;;3.75;2.03;;;;;;;;;;4949858;28;20107;-85
2021/10/06 02:07:00;;;;;;;2.65;1.70;;;;;;;;;;4967618;28;20047;-84
2021/10/06 02:09:26;;;;;;;2.38;1.67;;;;;;;;;;4971739;28;20050;-84
2021/10/06 02:11:53;;;;;;;2.92;1.52;;;;;;;;;;4967196;28;20164;-85
2021/10/06 02:14:20;;;;;;;3.47;1.90;;;;;;;;;;4966426;28;20047;-84
2021/10/06 02:16:46;;;;;;;2.38;1.52;;;;;;;;;;4970977;28;20062;-86
2021/10/06 02:19:12;;;;;;;2.15;1.35;;;;;;;;;;4969301;28;20443;-85
2021/10/06 02:21:39;;;;;;;1.67;1.20;;;;;;;;;;4974299;28;20138;-84
2021/10/06 02:24:06;;;;;;;2.78;1.70;;;;;;;;;;4970713;28;20054;-84
2021/10/06 02:26:32;;;;;;;2.17;1.40;;;;;;;;;;4970740;28;20062;-84
2021/10/06 02:28:59;;;;;;;2.85;1.80;;;;;;;;;;4972304;28;20054;-84
2021/10/06 02:31:26;;;;;;;2.08;1.27;;;;;;;;;;4972872;28;20058;-85
2021/10/06 02:33:52;;;;;;;2.40;1.20;;;;;;;;;;4973430;28;20062;-85
2021/10/06 02:36:18;;;;;;;2.00;1.42;;;;;;;;;;4973817;28;20431;-85
2021/10/06 02:38:45;;;;;;;2.13;1.38;;;;;;;;;;4972949;28;20055;-85
2021/10/06 02:41:11;;;;;;;2.05;1.35;;;;;;;;;;4979128;28;20058;-85
2021/10/06 02:43:38;;;;;;;2.22;1.52;;;;;;;;;;4971760;28;20071;-85
2021/10/06 02:46:04;;;;;;;2.25;1.38;;;;;;;;;;4960656;28;20075;-85
2021/10/06 02:48:30;;;;;;;2.75;1.42;;;;;;;;;;4974787;28;20032;-85
2021/10/06 02:50:57;;;;;;;2.00;0.98;;;;;;;;;;4987313;28;20049;-85
2021/10/06 02:53:23;;;;;;;2.40;1.20;;;;;;;;;;4993643;28;20078;-85
2021/10/06 02:55:50;;;;;;;2.20;1.20;;;;;;;;;;4973824;28;20081;-84
2021/10/06 02:58:16;;;;;;;2.30;1.30;;;;;;;;;;4994231;28;20062;-84
2021/10/06 03:00:42;;;;;;;2.30;1.17;;;;;;;;;;4985320;28;20074;-85
2021/10/06 03:03:09;;;;;;;2.80;1.23;;;;;;;;;;4990374;28;20061;-83
2021/10/06 03:05:35;;;;;;;1.63;1.10;;;;;;;;;;4989299;28;20504;-83
2021/10/06 03:08:02;;;;;;;1.75;1.23;;;;;;;;;;4991335;28;20065;-83
2021/10/06 03:10:28;;;;;;;2.10;1.20;;;;;;;;;;4992752;28;20117;-83
2021/10/06 03:12:54;;;;;;;1.70;1.10;;;;;;;;;;4993030;28;20034;-83
2021/10/06 03:15:21;;;;;;;2.20;1.25;;;;;;;;;;4992193;28;20057;-84
2021/10/06 03:17:47;;;;;;;1.23;0.80;;;;;;;;;;4992888;28;20066;-83
2021/10/06 03:20:14;;;;;;;2.20;1.10;;;;;;;;;;4992830;28;22276;-83
2021/10/06 03:22:41;;;;;;;1.73;0.90;;;;;;;;;;4993325;28;20041;-83
2021/10/06 03:25:07;;;;;;;1.65;0.90;;;;;;;;;;4988119;28;21439;-85
2021/10/06 03:27:34;;;;;;;1.67;0.98;;;;;;;;;;4993970;28;20042;-88
2021/10/06 03:30:01;;;;;;;1.90;1.15;;;;;;;;;;4997699;28;20065;-87
2021/10/06 03:32:27;;;;;;;2.28;1.30;;;;;;;;;;4996229;28;20076;-87
2021/10/06 03:34:53;;;;;;;1.58;1.00;;;;;;;;;;4991201;28;20038;-85
2021/10/06 03:37:20;;;;;;;2.05;1.13;;;;;;;;;;4976386;28;20069;-86
2021/10/06 03:39:46;;;;;;;1.63;1.00;;;;;;;;;;4992708;28;20061;-86
2021/10/06 03:42:13;;;;;;;1.75;1.10;;;;;;;;;;4991475;28;21484;-88
2021/10/06 03:44:39;;;;;;;1.60;0.90;;;;;;;;;;4992272;28;20569;-88
2021/10/06 03:47:05;;;;;;;2.03;1.23;;;;;;;;;;4993678;28;20185;-86
2021/10/06 03:49:32;;;;;;;1.67;1.02;;;;;;;;;;4992567;28;20324;-85
2021/10/06 03:51:58;;;;;;;1.60;1.00;;;;;;;;;;4966877;28;20073;-86
2021/10/06 03:54:25;;;;;;;1.80;0.98;;;;;;;;;;4989694;28;20041;-86
2021/10/06 03:56:52;;;;;;;3.85;1.52;;;;;;;;;;4993665;28;20081;-85
2021/10/06 03:59:19;;;;;;;1.52;1.00;;;;;;;;;;4987783;28;20050;-87
2021/10/06 04:01:46;;;;;;;1.67;1.10;;;;;;;;;;4994253;28;20065;-82
2021/10/06 04:04:12;;;;;;;2.38;1.30;;;;;;;;;;4985287;28;20077;-82
2021/10/06 04:06:39;;;;;;;1.85;1.20;;;;;;;;;;4993013;28;20050;-89
2021/10/06 04:09:05;;;;;;;2.25;1.08;;;;;;;;;;4993185;28;20203;-87
2021/10/06 04:11:31;;;;;;;1.38;0.85;;;;;;;;;;4999410;28;20041;-89
2021/10/06 04:13:58;;;;;;;1.90;1.00;;;;;;;;;;4994954;28;20034;-82
2021/10/06 04:16:25;;;;;;;2.22;1.17;;;;;;;;;;4990388;28;20101;-82
2021/10/06 04:18:51;;;;;;;1.67;1.00;;;;;;;;;;4989364;28;20058;-81
2021/10/06 04:21:17;;;;;;;1.30;0.90;;;;;;;;;;4987048;28;20479;-86
2021/10/06 04:23:44;;;;;;;2.08;1.08;;;;;;;;;;4973125;28;20145;-85
2021/10/06 04:26:10;;;;;;;1.50;1.10;;;;;;;;;;4990071;28;20121;-87
2021/10/06 04:28:37;;;;;;;2.78;1.23;;;;;;;;;;4994045;28;20679;-87
2021/10/06 04:31:03;;;;;;;2.83;1.02;;;;;;;;;;4973741;28;20454;-84
2021/10/06 04:33:30;;;;;;;1.40;0.95;;;;;;;;;;4994671;28;20049;-85
2021/10/06 04:35:56;;;;;;;1.90;1.10;;;;;;;;;;4991671;28;20057;-87
2021/10/06 04:38:23;;;;;;;2.88;1.17;;;;;;;;;;4995474;28;20060;-87
2021/10/06 04:40:49;;;;;;;4.45;1.20;;;;;;;;;;4994881;28;20062;-85
2021/10/06 04:43:15;;;;;;;2.08;0.98;;;;;;;;;;4978636;28;20069;-87
2021/10/06 04:45:42;;;;;;;3.10;1.25;;;;;;;;;;4995436;28;20498;-87
2021/10/06 04:48:08;;;;;;;2.70;1.00;;;;;;;;;;4990045;28;20062;-88
2021/10/06 04:50:34;;;;;;;1.65;1.00;;;;;;;;;;4988515;28;20455;-88
2021/10/06 04:53:01;;;;;;;2.78;1.15;;;;;;;;;;4989951;28;20489;-86
2021/10/06 04:55:27;;;;;;;2.70;1.08;;;;;;;;;;4984853;28;20063;-87
2021/10/06 04:57:54;;;;;;;1.90;1.00;;;;;;;;;;4987037;28;20487;-88
2021/10/06 05:00:21;;;;;;;2.10;1.13;;;;;;;;;;4989876;28;20062;-87
2021/10/06 05:02:47;;;;;;;1.95;1.10;;;;;;;;;;4989859;28;20038;-87
2021/10/06 05:05:14;;;;;;;1.83;1.08;;;;;;;;;;4995719;28;21638;-86
2021/10/06 05:07:40;;;;;;;1.70;0.90;;;;;;;;;;4982125;28;20464;-86
2021/10/06 05:10:07;;;;;;;1.75;1.00;;;;;;;;;;4989127;28;20038;-86
2021/10/06 05:12:33;;;;;;;2.70;1.23;;;;;;;;;;4989419;28;20046;-85
2021/10/06 05:15:00;;;;;;;2.42;0.98;;;;;;;;;;4987070;28;20494;-86
2021/10/06 05:17:26;;;;;;;2.38;1.00;;;;;;;;;;4988123;28;20152;-86
2021/10/06 05:19:53;;;;;;;1.88;1.13;;;;;;;;;;4993281;28;20057;-87
2021/10/06 05:22:19;;;;;;;1.65;1.00;;;;;;;;;;4989699;28;20046;-86
2021/10/06 05:24:45;;;;;;;2.40;1.00;;;;;;;;;;4982213;28;20161;-86
2021/10/06 05:27:12;;;;;;;2.40;0.82;;;;;;;;;;4989466;28;20035;-86
2021/10/06 05:29:38;;;;;;;2.20;1.10;;;;;;;;;;4992339;28;20109;-85
2021/10/06 05:32:05;;;;;;;1.75;1.10;;;;;;;;;;4997605;28;20147;-86
2021/10/06 05:34:32;;;;;;;2.92;1.00;;;;;;;;;;4997977;28;20039;-86
2021/10/06 05:36:59;;;;;;;1.65;0.88;;;;;;;;;;4995445;28;20039;-85
2021/10/06 05:39:26;;;;;;;2.38;1.10;;;;;;;;;;4988917;28;20500;-86
2021/10/06 05:41:52;;;;;;;1.42;0.90;;;;;;;;;;4988177;28;20067;-86
2021/10/06 05:44:19;;;;;;;1.65;0.98;;;;;;;;;;4964362;28;20082;-86
2021/10/06 05:46:45;;;;;;;2.25;0.95;;;;;;;;;;4988613;28;20506;-85
2021/10/06 05:49:13;;;;;;;2.08;0.90;;;;;;;;;;4990161;28;20065;-86
2021/10/06 05:51:39;;;;;;;1.63;0.93;;;;;;;;;;4991514;28;20081;-86
2021/10/06 05:54:06;;;;;;;1.92;1.00;;;;;;;;;;4959576;28;20074;-86
2021/10/06 05:56:32;;;;;;;2.13;1.33;;;;;;;;;;4989058;28;20494;-87
2021/10/06 05:58:59;;;;;;;1.60;0.82;;;;;;;;;;4986924;28;20065;-87
2021/10/06 06:01:26;;;;;;;2.22;1.00;;;;;;;;;;4994003;28;20038;-88
2021/10/06 06:03:53;;;;;;;2.00;0.90;;;;;;;;;;5002233;28;20074;-88
2021/10/06 06:06:20;;;;;;;2.35;1.20;;;;;;;;;;4993908;28;20041;-88
2021/10/06 06:08:46;;;;;;;1.27;0.85;;;;;;;;;;4993950;28;20070;-86
2021/10/06 06:11:13;;;;;;;2.03;1.02;;;;;;;;;;4989395;28;20512;-87
2021/10/06 06:13:39;;;;;;;1.50;1.10;;;;;;;;;;4991817;28;20564;-86
2021/10/06 06:16:06;;;;;;;2.08;1.00;;;;;;;;;;4990954;28;20062;-86
2021/10/06 06:18:32;;;;;;;1.70;1.10;;;;;;;;;;4993474;28;20066;-89
2021/10/06 06:20:59;;;;;;;2.15;1.00;;;;;;;;;;4994943;28;20073;-91
2021/10/06 06:23:26;;;;;;;2.10;0.90;;;;;;;;;;5002822;28;20061;-91
2021/10/06 06:25:52;;;;;;;1.35;1.10;;;;;;;;;;4978667;28;20375;-90
2021/10/06 06:28:19;;;;;;;1.45;0.90;;;;;;;;;;4998071;28;20026;-89
2021/10/06 06:30:45;;;;;;;1.73;1.10;;;;;;;;;;4997473;28;20026;-90
2021/10/06 06:33:11;;;;;;;1.63;0.90;;;;;;;;;;4993996;28;20058;-90
2021/10/06 06:35:38;;;;;;;1.70;1.13;;;;;;;;;;4997331;28;20031;-90
2021/10/06 06:38:04;;;;;;;2.17;1.17;;;;;;;;;;4994587;28;20510;-90
2021/10/06 06:40:31;;;;;;;2.05;1.15;;;;;;;;;;5000237;28;20413;-91
2021/10/06 06:42:57;;;;;;;1.83;1.10;;;;;;;;;;4993665;28;20379;-90
2021/10/06 06:45:24;;;;;;;1.40;1.00;;;;;;;;;;4989665;28;20046;-90
2021/10/06 06:47:50;;;;;;;2.00;1.42;;;;;;;;;;5002991;28;20038;-88
2021/10/06 06:50:18;;;;;;;2.33;1.00;;;;;;;;;;5001826;28;20042;-92
2021/10/06 06:52:44;;;;;;;1.83;1.00;;;;;;;;;;4996370;28;20085;-91
2021/10/06 06:55:11;;;;;;;1.60;1.00;;;;;;;;;;4996650;28;20038;-90
2021/10/06 06:57:37;;;;;;;2.50;1.00;;;;;;;;;;5003185;28;20044;-86
2021/10/06 07:00:05;;;;;;;1.90;1.08;;;;;;;;;;4995186;28;20037;-86
2021/10/06 07:02:32;;;;;;;1.70;1.10;;;;;;;;;;4995286;28;20114;-87
2021/10/06 07:04:58;;;;;;;1.75;1.00;;;;;;;;;;4990896;28;20126;-88
2021/10/06 07:07:25;;;;;;;1.70;1.10;;;;;;;;;;4980341;28;20109;-88
2021/10/06 07:09:51;;;;;;;1.75;1.02;;;;;;;;;;4988538;28;20069;-88
2021/10/06 07:12:19;;;;;;;3.38;1.20;;;;;;;;;;4989803;28;20034;-87
2021/10/06 07:14:45;;;;;;;2.10;1.27;;;;;;;;;;4992340;28;20069;-88
2021/10/06 07:17:12;;;;;;;2.05;1.10;;;;;;;;;;4995532;28;20050;-89
2021/10/06 07:19:39;;;;;;;1.67;1.10;;;;;;;;;;4992050;28;20050;-87
2021/10/06 07:22:06;;;;;;;1.42;0.90;;;;;;;;;;4991747;28;20088;-90
2021/10/06 07:24:32;;;;;;;2.05;1.10;;;;;;;;;;4989582;28;20121;-87
2021/10/06 07:26:59;;;;;;;1.73;1.00;;;;;;;;;;4993019;28;20065;-88
2021/10/06 07:29:25;;;;;;;1.52;1.02;;;;;;;;;;4977519;28;20073;-88
2021/10/06 07:31:51;;;;;;;2.08;1.20;;;;;;;;;;4974234;28;20054;-88
2021/10/06 07:34:18;;;;;;;2.22;1.48;;;;;;;;;;4993716;28;20089;-89
2021/10/06 07:36:44;;;;;;;1.83;1.00;;;;;;;;;;4994087;28;20066;-87
2021/10/06 07:39:11;;;;;;;2.20;1.10;;;;;;;;;;4991884;28;20106;-88
2021/10/06 07:41:37;;;;;;;2.42;1.00;;;;;;;;;;4993961;28;20085;-88
2021/10/06 07:44:04;;;;;;;1.80;1.13;;;;;;;;;;4990529;28;20058;-89
2021/10/06 07:46:30;;;;;;;1.77;1.15;;;;;;;;;;4986203;28;20054;-88
2021/10/06 07:48:57;;;;;;;1.88;1.10;;;;;;;;;;4993442;28;20030;-89
2021/10/06 07:51:23;;;;;;;1.08;0.80;;;;;;;;;;4984869;28;20074;-88
2021/10/06 07:53:50;;;;;;;3.85;1.20;;;;;;;;;;4978172;28;20031;-87
2021/10/06 07:56:18;;;;;;;1.98;1.40;;;;;;;;;;4973026;28;20069;-89
2021/10/06 07:58:44;;;;;;;3.28;1.17;;;;;;;;;;4949505;28;20513;-89
2021/10/06 08:01:11;;;;;;;2.28;1.20;;;;;;;;;;4968511;28;20168;-89
2021/10/06 08:03:37;;;;;;;1.63;1.13;;;;;;;;;;4974050;28;20072;-88
2021/10/06 08:06:03;;;;;;;2.75;1.25;;;;;;;;;;4956955;28;20063;-88
2021/10/06 08:08:30;;;;;;;2.30;1.40;;;;;;;;;;4975587;28;20047;-87
2021/10/06 08:10:57;;;;;;;1.88;1.10;;;;;;;;;;4972195;28;20054;-87
2021/10/06 08:13:24;;;;;;;1.83;1.20;;;;;;;;;;4975267;28;20440;-89
2021/10/06 08:15:51;;;;;;;2.35;1.30;;;;;;;;;;4955155;28;20062;-87
2021/10/06 08:18:21;;;;;;;2.05;1.15;;;;;;;;;;4975151;28;20098;-88
2021/10/06 08:20:48;;;;;;;2.13;1.10;;;;;;;;;;4978318;28;20094;-88
2021/10/06 08:23:17;;;;;;;2.20;1.25;;;;;;;;;;4971058;28;20390;-86
2021/10/06 08:25:44;;;;;;;2.08;1.40;;;;;;;;;;4970033;28;20035;-86
2021/10/06 08:28:11;;;;;;;2.22;1.10;;;;;;;;;;4969602;28;20506;-87
2021/10/06 08:30:38;;;;;;;3.20;1.13;;;;;;;;;;4971293;28;20054;-86
2021/10/06 08:33:04;;;;;;;1.83;1.17;;;;;;;;;;4965569;28;20364;-86
2021/10/06 08:35:32;;;;;;;2.00;1.13;;;;;;;;;;4955854;28;20074;-86
2021/10/06 08:37:59;;;;;;;1.75;1.00;;;;;;;;;;4963887;28;20490;-86
2021/10/06 08:40:25;;;;;;;2.45;1.17;;;;;;;;;;4955221;28;20035;-84
2021/10/06 08:42:52;;;;;;;1.95;1.10;;;;;;;;;;4968387;28;20482;-86
2021/10/06 08:45:19;;;;;;;1.60;1.05;;;;;;;;;;4954580;28;20066;-85
2021/10/06 08:47:45;;;;;;;1.83;1.10;;;;;;;;;;4970993;28;20464;-85
2021/10/06 08:50:16;;;;;;;1.75;1.00;;;;;;;;;;4964682;28;20064;-86
2021/10/06 08:52:47;;;;;;;1.58;1.08;;;;;;;;;;4990442;28;20107;-86
2021/10/06 08:55:14;;;;;;;2.30;1.00;;;;;;;;;;4985535;28;20065;-84
2021/10/06 08:57:40;;;;;;;1.65;1.00;;;;;;;;;;4985961;28;20039;-85
2021/10/06 09:00:08;;;;;;;1.88;1.20;;;;;;;;;;4996042;28;20034;-84
2021/10/06 09:02:41;;;;;;;2.08;1.30;;;;;;;;;;4985197;28;20066;-84
2021/10/06 09:05:12;;;;;;;2.40;1.42;;;;;;;;;;4989343;28;20054;-84
2021/10/06 09:07:54;;;;;;;1.90;1.20;;;;;;;;;;4993141;28;20038;-84
2021/10/06 09:10:20;;;;;;;1.77;1.20;;;;;;;;;;4991487;28;20467;-84
2021/10/06 09:12:57;;;;;;;1.50;1.00;;;;;;;;;;4995892;28;20058;-85
2021/10/06 09:15:24;;;;;;;2.17;1.13;;;;;;;;;;4995457;28;20073;-85
2021/10/06 09:17:54;;;;;;;1.70;1.10;;;;;;;;;;4985902;28;20403;-84
2021/10/06 09:20:21;;;;;;;2.30;1.30;;;;;;;;;;4990238;28;20046;-85
2021/10/06 09:23:03;;;;;;;2.05;1.10;;;;;;;;;;4974907;28;20153;-85
2021/10/06 09:25:36;;;;;;;1.50;1.08;;;;;;;;;;4987541;28;20073;-85
2021/10/06 09:28:06;;;;;;;1.90;1.30;;;;;;;;;;4966801;28;20066;-83
2021/10/06 09:30:32;;;;;;;2.10;1.20;;;;;;;;;;4987351;28;20065;-84
2021/10/06 09:33:00;;;;;;;1.65;1.20;;;;;;;;;;4988742;28;20058;-85
2021/10/06 09:35:26;;;;;;;1.70;0.95;;;;;;;;;;4972120;28;20062;-85
2021/10/06 09:37:57;;;;;;;1.67;1.20;;;;;;;;;;4980153;28;20402;-85
2021/10/06 09:40:28;;;;;;;1.77;1.10;;;;;;;;;;4991778;28;20454;-85
2021/10/06 09:42:59;;;;;;;1.73;1.20;;;;;;;;;;4983855;28;20049;-85
2021/10/06 09:45:35;;;;;;;1.70;1.10;;;;;;;;;;4994248;28;20049;-85
2021/10/06 09:48:12;;;;;;;1.67;1.10;;;;;;;;;;4989433;28;20524;-86
2021/10/06 09:50:38;;;;;;;1.60;1.10;;;;;;;;;;4988685;28;20042;-85
2021/10/06 09:53:08;;;;;;;1.90;1.10;;;;;;;;;;4989197;28;20066;-84
2021/10/06 09:55:38;;;;;;;1.90;1.10;;;;;;;;;;4993245;28;20565;-84
2021/10/06 09:58:05;;;;;;;2.08;1.30;;;;;;;;;;4987710;28;20062;-84
2021/10/06 10:00:31;;;;;;;1.65;1.02;;;;;;;;;;4990788;28;20042;-84
2021/10/06 10:02:58;;;;;;;2.42;1.00;;;;;;;;;;4989497;28;20058;-85
2021/10/06 10:05:24;;;;;;;1.58;1.08;;;;;;;;;;4988805;28;20090;-85
2021/10/06 10:07:53;;;;;;;2.72;1.20;;;;;;;;;;4972301;28;20035;-85
2021/10/06 10:10:20;;;;;;;1.70;1.10;;;;;;;;;;4990190;28;20031;-88
2021/10/06 10:12:47;;;;;;;2.67;1.58;;;;;;;;;;4973450;28;20065;-84
2021/10/06 10:15:14;;;;;;;2.10;1.20;;;;;;;;;;4989904;28;20030;-84
2021/10/06 10:17:41;;;;;;;2.22;1.30;;;;;;;;;;4989275;28;20637;-83
2021/10/06 10:20:09;;;;;;;2.05;1.33;;;;;;;;;;4990234;28;20058;-85
2021/10/06 10:22:41;;;;;;;1.90;1.60;;;;;;;;;;4991821;28;20043;-84
2021/10/06 10:25:30;;;;;;;1.90;1.40;;;;;;;;;;4971060;28;20568;-84
2021/10/06 10:28:15;;;;;;;2.30;1.50;;;;;;;;;;4966837;28;20062;-85
2021/10/06 10:30:57;;;;;;;3.17;1.55;;;;;;;;;;4969240;28;20039;-84
2021/10/06 10:33:42;;;;;;;2.10;1.65;;;;;;;;;;4983892;28;20035;-85
2021/10/06 10:36:27;;;;;;;2.47;1.42;;;;;;;;;;4987018;28;20030;-86
2021/10/06 10:38:54;;;;;;;1.90;1.45;;;;;;;;;;4990340;28;20034;-85
2021/10/06 10:41:39;;;;;;;2.53;1.58;;;;;;;;;;4990774;28;20105;-86
2021/10/06 10:44:06;;;;;;;4.65;2.08;;;;;;;;;;4970181;28;20619;-86
2021/10/06 10:46:52;;;;;;;2.40;1.55;;;;;;;;;;4972499;28;20038;-87
2021/10/06 10:49:18;;;;;;;2.58;1.90;;;;;;;;;;5002616;28;20038;-88
2021/10/06 10:51:49;;;;;;;3.25;1.52;;;;;;;;;;4993084;28;20470;-87
2021/10/06 10:54:31;;;;;;;2.53;1.57;;;;;;;;;;4977460;28;20140;-88
2021/10/06 10:57:03;;;;;;;2.20;1.45;;;;;;;;;;4993411;28;20062;-88
2021/10/06 10:59:39;;;;;;;5.93;1.77;;;;;;;;;;4991956;28;20055;-87
2021/10/06 11:02:14;;;;;;;2.35;1.33;;;;;;;;;;4993312;28;20054;-88
2021/10/06 11:04:44;;;;;;;4.93;1.40;;;;;;;;;;5003309;28;20490;-89
2021/10/06 11:07:14;;;;;;;2.65;1.60;;;;;;;;;;4998197;28;20034;-87
2021/10/06 11:09:42;;;;;;;5.38;1.92;;;;;;;;;;4996928;28;20038;-89
2021/10/06 11:12:08;;;;;;;4.63;1.42;;;;;;;;;;4994579;28;20371;-86
2021/10/06 11:14:39;;;;;;;2.38;1.42;;;;;;;;;;4997703;28;20042;-86
2021/10/06 11:17:09;;;;;;;3.35;1.60;;;;;;;;;;4977245;28;20439;-87
2021/10/06 11:19:44;;;;;;;3.60;1.65;;;;;;;;;;4997039;28;20089;-87
2021/10/06 11:22:23;;;;;;;4.65;1.70;;;;;;;;;;4988443;28;20204;-87
2021/10/06 11:24:58;;;;;;;4.18;1.60;;;;;;;;;;4990254;28;20042;-80
2021/10/06 11:27:26;;;;;;;4.28;1.67;;;;;;;;;;4992155;28;20438;-87
2021/10/06 11:29:54;;;;;;;7.55;1.60;;;;;;;;;;4992143;28;20065;-86
2021/10/06 11:32:20;;;;;;;3.80;1.60;;;;;;;;;;4994393;28;20585;-86
2021/10/06 11:34:51;;;;;;;2.10;1.40;;;;;;;;;;4976372;28;20131;-87
2021/10/06 11:37:18;;;;;;;2.90;1.50;;;;;;;;;;4989053;28;20431;-88
2021/10/06 11:39:45;;;;;;;3.78;1.63;;;;;;;;;;4992623;28;20139;-86
2021/10/06 11:42:12;;;;;;;5.40;1.83;;;;;;;;;;4991264;28;20054;-88
2021/10/06 11:44:38;;;;;;;2.85;1.70;;;;;;;;;;4994737;28;20150;-87
2021/10/06 11:47:12;;;;;;;2.88;1.55;;;;;;;;;;4979227;28;20022;-86
2021/10/06 11:49:39;;;;;;;3.83;1.85;;;;;;;;;;4996393;28;20589;-86
2021/10/06 11:52:06;;;;;;;3.97;1.70;;;;;;;;;;4995296;28;20066;-86
2021/10/06 11:54:33;;;;;;;3.70;1.40;;;;;;;;;;4991292;28;20034;-87
2021/10/06 11:57:04;;;;;;;5.38;1.90;;;;;;;;;;4992324;28;20066;-86
2021/10/06 11:59:31;;;;;;;4.10;1.73;;;;;;;;;;4986555;28;20053;-85
2021/10/06 12:02:05;;;;;;;3.53;1.52;;;;;;;;;;4992005;28;20120;-86
2021/10/06 12:04:33;;;;;;;3.08;1.60;;;;;;;;;;4994412;28;20077;-87
2021/10/06 12:07:00;;;;;;;3.50;1.70;;;;;;;;;;4993450;28;20096;-87
2021/10/06 12:09:28;;;;;;;3.05;1.40;;;;;;;;;;4991529;28;20038;-86
2021/10/06 12:11:54;;;;;;;4.43;1.65;;;;;;;;;;4990112;28;20035;-86
2021/10/06 12:14:21;;;;;;;3.90;1.70;;;;;;;;;;4991255;28;20486;-87
2021/10/06 12:16:57;;;;;;;4.93;2.10;;;;;;;;;;4975989;28;20066;-87
2021/10/06 12:19:23;;;;;;;4.20;1.48;;;;;;;;;;4963375;28;22499;-86
2021/10/06 12:21:50;;;;;;;4.53;1.58;;;;;;;;;;4989503;28;20078;-86
2021/10/06 12:24:17;;;;;;;2.42;1.40;;;;;;;;;;4989269;28;20527;-87
2021/10/06 12:26:44;;;;;;;5.57;1.60;;;;;;;;;;5003291;28;20438;-86
2021/10/06 12:29:10;;;;;;;3.30;1.50;;;;;;;;;;4995098;28;20042;-85
2021/10/06 12:31:38;;;;;;;2.28;1.60;;;;;;;;;;4997974;28;20038;-87
2021/10/06 12:34:07;;;;;;;3.38;1.40;;;;;;;;;;4990064;28;20068;-86
2021/10/06 12:36:34;;;;;;;3.25;1.45;;;;;;;;;;4987275;28;20062;-86
2021/10/06 12:39:02;;;;;;;3.80;1.60;;;;;;;;;;4989235;28;20034;-86
2021/10/06 12:41:40;;;;;;;3.13;1.52;;;;;;;;;;4991838;28;20058;-90
2021/10/06 12:44:17;;;;;;;2.92;1.40;;;;;;;;;;4983941;28;20070;-84
2021/10/06 12:46:43;;;;;;;3.45;1.70;;;;;;;;;;4989798;28;20058;-84
2021/10/06 12:49:11;;;;;;;2.20;1.33;;;;;;;;;;4995314;28;20046;-85
2021/10/06 12:51:37;;;;;;;2.00;1.40;;;;;;;;;;4984411;28;20062;-85
2021/10/06 12:54:15;;;;;;;2.65;1.35;;;;;;;;;;4971572;28;20061;-84
2021/10/06 12:56:49;;;;;;;4.63;1.77;;;;;;;;;;4992121;28;20085;-86
2021/10/06 12:59:15;;;;;;;2.13;1.48;;;;;;;;;;4991451;28;20034;-86
2021/10/06 13:01:43;;;;;;;3.05;1.40;;;;;;;;;;4989214;28;20038;-87
2021/10/06 13:04:11;;;;;;;2.85;1.40;;;;;;;;;;4990526;28;20077;-85
2021/10/06 13:06:38;;;;;;;2.38;1.42;;;;;;;;;;4990541;28;20089;-85
2021/10/06 13:09:06;;;;;;;2.72;1.45;;;;;;;;;;4975058;28;20039;-89
2021/10/06 13:11:36;;;;;;;2.95;1.30;;;;;;;;;;4985342;28;20530;-85
2021/10/06 13:14:02;;;;;;;2.00;1.33;;;;;;;;;;4990414;28;20046;-86
2021/10/06 13:16:29;;;;;;;2.17;1.35;;;;;;;;;;4991702;28;20062;-86
2021/10/06 13:18:55;;;;;;;2.72;1.50;;;;;;;;;;4988049;28;20120;-86
2021/10/06 13:21:23;;;;;;;3.90;1.35;;;;;;;;;;4989039;28;20474;-84
2021/10/06 13:23:50;;;;;;;2.75;1.30;;;;;;;;;;4991694;28;20066;-86
2021/10/06 13:26:16;;;;;;;1.85;1.30;;;;;;;;;;4987009;28;20466;-84
2021/10/06 13:28:43;;;;;;;3.35;1.30;;;;;;;;;;4991060;28;20446;-84
2021/10/06 13:31:10;;;;;;;3.88;1.50;;;;;;;;;;4990634;28;20471;-86
2021/10/06 13:33:37;;;;;;;2.72;1.20;;;;;;;;;;4991638;28;20081;-84
2021/10/06 13:36:08;;;;;;;2.80;1.50;;;;;;;;;;5004028;28;20037;-84
2021/10/06 13:38:35;;;;;;;2.97;1.67;;;;;;;;;;4984834;28;20062;-85
2021/10/06 13:41:01;;;;;;;2.25;1.40;;;;;;;;;;5001358;28;20058;-84
2021/10/06 13:43:27;;;;;;;2.75;1.30;;;;;;;;;;5012458;28;20027;-85
2021/10/06 13:45:54;;;;;;;2.63;1.55;;;;;;;;;;4996395;28;20050;-83
2021/10/06 13:48:20;;;;;;;2.90;1.40;;;;;;;;;;5015260;28;20041;-84
2021/10/06 13:50:47;;;;;;;2.65;1.40;;;;;;;;;;5011601;28;20106;-85
2021/10/06 13:53:13;;;;;;;2.90;1.60;;;;;;;;;;5019751;28;20041;-85
2021/10/06 13:55:39;;;;;;;2.70;1.50;;;;;;;;;;5002831;28;20035;-84
2021/10/06 13:58:06;;;;;;;2.97;1.33;;;;;;;;;;4980302;28;20136;-86
2021/10/06 14:00:34;;;;;;;1.67;1.17;;;;;;;;;;4999708;28;20047;-85
2021/10/06 14:03:00;;;;;;;1.60;1.20;;;;;;;;;;5000061;28;20035;-85
2021/10/06 14:05:28;;;;;;;2.92;1.70;;;;;;;;;;5002962;28;20071;-83
2021/10/06 14:07:54;;;;;;;4.18;1.35;;;;;;;;;;4998469;28;20098;-85
2021/10/06 14:10:23;;;;;;;1.77;1.23;;;;;;;;;;4999419;28;20034;-85
2021/10/06 14:12:49;;;;;;;1.73;1.25;;;;;;;;;;5002878;28;20125;-84
2021/10/06 14:15:16;;;;;;;2.38;1.48;;;;;;;;;;4998191;28;20364;-84
2021/10/06 14:17:42;;;;;;;1.73;1.20;;;;;;;;;;5005532;28;20382;-83
2021/10/06 14:20:09;;;;;;;3.95;1.30;;;;;;;;;;5015568;28;20058;-88
2021/10/06 14:22:38;;;;;;;2.30;1.40;;;;;;;;;;5018619;28;20030;-84
2021/10/06 14:25:06;;;;;;;2.67;1.40;;;;;;;;;;5002787;28;20050;-84
2021/10/06 14:27:32;;;;;;;5.65;1.60;;;;;;;;;;5005606;28;20046;-84
2021/10/06 14:29:59;;;;;;;1.92;1.38;;;;;;;;;;5004636;28;20022;-85
2021/10/06 14:32:26;;;;;;;2.67;1.40;;;;;;;;;;5009633;28;20038;-85
2021/10/06 14:34:52;;;;;;;2.67;1.48;;;;;;;;;;5002766;28;20041;-82
2021/10/06 14:37:19;;;;;;;1.63;1.20;;;;;;;;;;4985669;28;20031;-84
2021/10/06 14:39:45;;;;;;;1.88;1.10;;;;;;;;;;5003871;28;20039;-86
2021/10/06 14:42:11;;;;;;;1.88;1.40;;;;;;;;;;5005085;28;20034;-82
2021/10/06 14:44:38;;;;;;;4.30;1.60;;;;;;;;;;4995572;28;20093;-84
2021/10/06 14:47:04;;;;;;;1.63;1.40;;;;;;;;;;4984636;28;20038;-85